首页
METAR-TAF:

METAR-TAF

机场 :

哈米德·卡尔扎伊国际机场

喀布尔, 阿富汗

纬度: 34-38N, 经度: 069-12E, 海拔: 1789米

当前天气观测

该预报发布于38分钟前的20:50 UTC
风速7节,风向西北
温度 -4°C
湿度 63%
气压 1019 hPa
能見度: 8000

METAR: OAKB 262050Z 32007KT 8000 NSC M04/M10 Q1019 NOSIG RMK A3009 BLU BLU

时间: 01:58 (21:28 UTC)

预报

该预报发布于4小时和23分钟前的17:05 UTC
预报有效从26日的 18点(UTC)到 27日的 18点(UTC)
风速6节,风向西北
能見度: 6000
多云层高于8000英尺
短暂存在
从 26日的 18点(UTC)到 26日的 22点(UTC)
能見度: 4000
短暂存在
从 27日的 03点(UTC)到 27日的 05点(UTC)
能見度: 4000
烟, 轻雾
成为
从 27日的 06点(UTC)到 27日的 08点(UTC)
风速6节,风向北转西北
能见度10公里或以上
散云层高于8000英尺
成为
从 27日的 13点(UTC)到 27日的 14点(UTC)
风速2节,风向多变
能見度: 5000

TAF: OAKB 261705Z 2618/2718 32006KT 6000 BKN080 TEMPO 2618/2622 4000 FU TEMPO 2703/2705 4000 FU BR BECMG 2706/2708 33006KT 9999 SCT080 BECMG 2713/2714 VRB02KT 5000 FU NSC

超过4000个机场的气象观测和天气预报(METAR&TAF报告)。

可查询的气象台以黄色和红色小点在地图上表示。

将鼠标移到小点上方,可查看气象台名称。

然后点击查看天气观测和预报。

如需切换地图:点击带黑十字的绿色按钮放大地图;点击带横线的绿色按钮缩小地图;或者点击绿色箭头查看邻近地区的地图。


METAR-TAF: